sensor_id;sensor_type;location;lat;lon;timestamp;P1;durP1;ratioP1;P2;durP2;ratioP2
9938;SDS011;5008;50.656;7.188;2022-11-15T00:01:10;9.10;;;7.90;;
9938;SDS011;5008;50.656;7.188;2022-11-15T00:03:41;8.20;;;6.90;;
9938;SDS011;5008;50.656;7.188;2022-11-15T00:06:10;8.33;;;7.53;;
9938;SDS011;5008;50.656;7.188;2022-11-15T00:08:37;9.03;;;7.83;;
9938;SDS011;5008;50.656;7.188;2022-11-15T00:11:03;8.30;;;7.50;;
9938;SDS011;5008;50.656;7.188;2022-11-15T00:13:30;8.50;;;7.70;;
9938;SDS011;5008;50.656;7.188;2022-11-15T00:15:57;9.97;;;8.30;;
9938;SDS011;5008;50.656;7.188;2022-11-15T00:18:25;9.53;;;8.10;;
9938;SDS011;5008;50.656;7.188;2022-11-15T00:20:53;8.07;;;7.20;;
9938;SDS011;5008;50.656;7.188;2022-11-15T00:23:21;8.63;;;7.83;;
9938;SDS011;5008;50.656;7.188;2022-11-15T00:25:54;9.03;;;7.70;;
9938;SDS011;5008;50.656;7.188;2022-11-15T00:28:22;10.97;;;8.23;;
9938;SDS011;5008;50.656;7.188;2022-11-15T00:30:49;8.57;;;7.63;;
9938;SDS011;5008;50.656;7.188;2022-11-15T00:33:16;9.93;;;7.87;;
9938;SDS011;5008;50.656;7.188;2022-11-15T00:35:43;8.93;;;7.57;;
9938;SDS011;5008;50.656;7.188;2022-11-15T00:38:09;9.53;;;8.33;;
9938;SDS011;5008;50.656;7.188;2022-11-15T00:40:37;8.13;;;7.33;;
9938;SDS011;5008;50.656;7.188;2022-11-15T00:43:04;10.23;;;7.77;;
9938;SDS011;5008;50.656;7.188;2022-11-15T00:45:31;8.60;;;7.60;;
9938;SDS011;5008;50.656;7.188;2022-11-15T00:47:58;8.57;;;7.57;;
9938;SDS011;5008;50.656;7.188;2022-11-15T00:50:25;7.77;;;6.93;;
9938;SDS011;5008;50.656;7.188;2022-11-15T00:52:51;7.03;;;6.33;;
9938;SDS011;5008;50.656;7.188;2022-11-15T00:55:18;8.50;;;7.03;;
9938;SDS011;5008;50.656;7.188;2022-11-15T00:57:47;7.43;;;6.63;;
9938;SDS011;5008;50.656;7.188;2022-11-15T01:00:14;7.57;;;6.87;;
9938;SDS011;5008;50.656;7.188;2022-11-15T01:02:41;8.00;;;6.70;;
9938;SDS011;5008;50.656;7.188;2022-11-15T01:05:08;7.77;;;6.90;;
9938;SDS011;5008;50.656;7.188;2022-11-15T01:07:35;7.37;;;6.63;;
9938;SDS011;5008;50.656;7.188;2022-11-15T01:10:02;7.93;;;7.13;;
9938;SDS011;5008;50.656;7.188;2022-11-15T01:12:29;8.10;;;7.30;;
9938;SDS011;5008;50.656;7.188;2022-11-15T01:14:57;8.17;;;7.43;;
9938;SDS011;5008;50.656;7.188;2022-11-15T01:17:24;10.07;;;7.73;;
9938;SDS011;5008;50.656;7.188;2022-11-15T01:19:51;8.30;;;7.50;;
9938;SDS011;5008;50.656;7.188;2022-11-15T01:22:18;10.33;;;7.87;;
9938;SDS011;5008;50.656;7.188;2022-11-15T01:24:44;8.33;;;7.17;;
9938;SDS011;5008;50.656;7.188;2022-11-15T01:27:11;8.53;;;7.67;;
9938;SDS011;5008;50.656;7.188;2022-11-15T01:29:38;8.83;;;7.60;;
9938;SDS011;5008;50.656;7.188;2022-11-15T01:32:06;8.97;;;7.57;;
9938;SDS011;5008;50.656;7.188;2022-11-15T01:34:33;8.13;;;7.33;;
9938;SDS011;5008;50.656;7.188;2022-11-15T01:37:00;7.93;;;6.77;;
9938;SDS011;5008;50.656;7.188;2022-11-15T01:39:27;7.57;;;6.57;;
9938;SDS011;5008;50.656;7.188;2022-11-15T01:41:54;6.33;;;5.63;;
9938;SDS011;5008;50.656;7.188;2022-11-15T01:44:31;7.43;;;6.00;;
9938;SDS011;5008;50.656;7.188;2022-11-15T01:47:05;7.90;;;6.07;;
9938;SDS011;5008;50.656;7.188;2022-11-15T01:49:38;7.37;;;6.23;;
9938;SDS011;5008;50.656;7.188;2022-11-15T01:52:10;7.20;;;6.50;;
9938;SDS011;5008;50.656;7.188;2022-11-15T01:54:41;6.47;;;5.70;;
9938;SDS011;5008;50.656;7.188;2022-11-15T01:57:09;6.13;;;5.53;;
9938;SDS011;5008;50.656;7.188;2022-11-15T01:59:38;6.30;;;5.70;;
9938;SDS011;5008;50.656;7.188;2022-11-15T02:02:09;5.70;;;5.20;;
9938;SDS011;5008;50.656;7.188;2022-11-15T02:04:37;6.60;;;5.73;;
9938;SDS011;5008;50.656;7.188;2022-11-15T02:07:07;6.30;;;5.70;;
9938;SDS011;5008;50.656;7.188;2022-11-15T02:09:36;6.00;;;5.27;;
9938;SDS011;5008;50.656;7.188;2022-11-15T02:12:04;6.90;;;6.20;;
9938;SDS011;5008;50.656;7.188;2022-11-15T02:14:33;6.03;;;5.50;;
9938;SDS011;5008;50.656;7.188;2022-11-15T02:17:02;5.70;;;5.20;;
9938;SDS011;5008;50.656;7.188;2022-11-15T02:19:44;6.23;;;5.07;;
9938;SDS011;5008;50.656;7.188;2022-11-15T02:22:33;5.07;;;4.53;;
9938;SDS011;5008;50.656;7.188;2022-11-15T02:25:10;5.67;;;5.10;;
9938;SDS011;5008;50.656;7.188;2022-11-15T02:27:58;5.77;;;5.13;;
9938;SDS011;5008;50.656;7.188;2022-11-15T02:30:39;5.63;;;5.13;;
9938;SDS011;5008;50.656;7.188;2022-11-15T02:33:11;5.47;;;4.97;;
9938;SDS011;5008;50.656;7.188;2022-11-15T02:35:48;5.77;;;5.23;;
9938;SDS011;5008;50.656;7.188;2022-11-15T02:38:31;5.97;;;5.37;;
9938;SDS011;5008;50.656;7.188;2022-11-15T02:41:04;6.87;;;5.87;;
9938;SDS011;5008;50.656;7.188;2022-11-15T02:43:36;6.50;;;5.67;;
9938;SDS011;5008;50.656;7.188;2022-11-15T02:46:23;6.43;;;5.83;;
9938;SDS011;5008;50.656;7.188;2022-11-15T02:49:08;6.30;;;5.70;;
9938;SDS011;5008;50.656;7.188;2022-11-15T02:51:37;6.60;;;6.00;;
9938;SDS011;5008;50.656;7.188;2022-11-15T02:54:05;7.00;;;6.30;;
9938;SDS011;5008;50.656;7.188;2022-11-15T02:56:31;6.70;;;6.10;;
9938;SDS011;5008;50.656;7.188;2022-11-15T02:59:07;6.53;;;5.93;;
9938;SDS011;5008;50.656;7.188;2022-11-15T03:01:50;6.50;;;6.00;;
9938;SDS011;5008;50.656;7.188;2022-11-15T03:04:27;6.73;;;6.10;;
9938;SDS011;5008;50.656;7.188;2022-11-15T03:07:04;6.97;;;6.33;;
9938;SDS011;5008;50.656;7.188;2022-11-15T03:09:38;6.67;;;6.07;;
9938;SDS011;5008;50.656;7.188;2022-11-15T03:12:10;6.70;;;6.07;;
9938;SDS011;5008;50.656;7.188;2022-11-15T03:14:42;7.60;;;6.90;;
9938;SDS011;5008;50.656;7.188;2022-11-15T03:17:18;6.70;;;6.10;;
9938;SDS011;5008;50.656;7.188;2022-11-15T03:19:49;7.07;;;6.40;;
9938;SDS011;5008;50.656;7.188;2022-11-15T03:22:20;6.93;;;6.33;;
9938;SDS011;5008;50.656;7.188;2022-11-15T03:24:50;6.77;;;6.17;;
9938;SDS011;5008;50.656;7.188;2022-11-15T03:27:20;7.13;;;6.20;;
9938;SDS011;5008;50.656;7.188;2022-11-15T03:29:51;6.57;;;5.97;;
9938;SDS011;5008;50.656;7.188;2022-11-15T03:32:24;6.67;;;6.03;;
9938;SDS011;5008;50.656;7.188;2022-11-15T03:34:55;6.73;;;5.93;;
9938;SDS011;5008;50.656;7.188;2022-11-15T03:37:26;6.40;;;5.83;;
9938;SDS011;5008;50.656;7.188;2022-11-15T03:39:58;7.03;;;6.33;;
9938;SDS011;5008;50.656;7.188;2022-11-15T03:42:27;6.30;;;5.80;;
9938;SDS011;5008;50.656;7.188;2022-11-15T03:44:58;6.53;;;5.93;;
9938;SDS011;5008;50.656;7.188;2022-11-15T03:47:31;6.17;;;5.50;;
9938;SDS011;5008;50.656;7.188;2022-11-15T03:50:01;6.30;;;5.80;;
9938;SDS011;5008;50.656;7.188;2022-11-15T03:52:33;6.63;;;6.03;;
9938;SDS011;5008;50.656;7.188;2022-11-15T03:55:01;5.97;;;5.40;;
9938;SDS011;5008;50.656;7.188;2022-11-15T03:57:30;6.10;;;5.50;;
9938;SDS011;5008;50.656;7.188;2022-11-15T03:59:57;5.90;;;5.40;;
9938;SDS011;5008;50.656;7.188;2022-11-15T04:02:24;6.43;;;5.83;;
9938;SDS011;5008;50.656;7.188;2022-11-15T04:04:52;5.73;;;5.27;;
9938;SDS011;5008;50.656;7.188;2022-11-15T04:07:19;6.57;;;5.53;;
9938;SDS011;5008;50.656;7.188;2022-11-15T04:09:46;5.80;;;5.20;;
9938;SDS011;5008;50.656;7.188;2022-11-15T04:12:31;6.10;;;5.60;;
9938;SDS011;5008;50.656;7.188;2022-11-15T04:14:59;5.83;;;5.33;;
9938;SDS011;5008;50.656;7.188;2022-11-15T04:17:34;6.27;;;5.47;;
9938;SDS011;5008;50.656;7.188;2022-11-15T04:20:04;5.40;;;4.90;;
9938;SDS011;5008;50.656;7.188;2022-11-15T04:22:51;5.33;;;4.93;;
9938;SDS011;5008;50.656;7.188;2022-11-15T04:25:36;5.83;;;5.23;;
9938;SDS011;5008;50.656;7.188;2022-11-15T04:28:03;5.47;;;4.97;;
9938;SDS011;5008;50.656;7.188;2022-11-15T04:30:30;5.93;;;5.40;;
9938;SDS011;5008;50.656;7.188;2022-11-15T04:32:57;4.70;;;4.30;;
9938;SDS011;5008;50.656;7.188;2022-11-15T04:35:25;5.53;;;5.00;;
9938;SDS011;5008;50.656;7.188;2022-11-15T04:37:52;5.17;;;4.67;;
9938;SDS011;5008;50.656;7.188;2022-11-15T04:40:18;5.00;;;4.33;;
9938;SDS011;5008;50.656;7.188;2022-11-15T04:42:45;4.83;;;4.43;;
9938;SDS011;5008;50.656;7.188;2022-11-15T04:45:12;5.43;;;4.93;;
9938;SDS011;5008;50.656;7.188;2022-11-15T04:47:38;5.10;;;4.70;;
9938;SDS011;5008;50.656;7.188;2022-11-15T04:50:06;4.67;;;4.27;;
9938;SDS011;5008;50.656;7.188;2022-11-15T04:52:34;4.87;;;4.47;;
9938;SDS011;5008;50.656;7.188;2022-11-15T04:55:01;4.60;;;4.20;;
9938;SDS011;5008;50.656;7.188;2022-11-15T04:57:28;4.53;;;4.10;;
9938;SDS011;5008;50.656;7.188;2022-11-15T04:59:55;4.10;;;3.80;;
9938;SDS011;5008;50.656;7.188;2022-11-15T05:02:21;4.20;;;3.80;;
9938;SDS011;5008;50.656;7.188;2022-11-15T05:04:48;4.13;;;3.83;;
9938;SDS011;5008;50.656;7.188;2022-11-15T05:07:14;3.80;;;3.50;;
9938;SDS011;5008;50.656;7.188;2022-11-15T05:09:42;4.10;;;3.80;;
9938;SDS011;5008;50.656;7.188;2022-11-15T05:12:09;5.30;;;4.10;;
9938;SDS011;5008;50.656;7.188;2022-11-15T05:14:36;4.20;;;3.80;;
9938;SDS011;5008;50.656;7.188;2022-11-15T05:17:03;4.07;;;3.67;;
9938;SDS011;5008;50.656;7.188;2022-11-15T05:19:29;3.73;;;3.43;;
9938;SDS011;5008;50.656;7.188;2022-11-15T05:21:56;4.33;;;3.90;;
9938;SDS011;5008;50.656;7.188;2022-11-15T05:24:23;4.40;;;4.00;;
9938;SDS011;5008;50.656;7.188;2022-11-15T05:26:51;4.33;;;3.30;;
9938;SDS011;5008;50.656;7.188;2022-11-15T05:29:18;4.17;;;3.80;;
9938;SDS011;5008;50.656;7.188;2022-11-15T05:31:45;3.80;;;3.50;;
9938;SDS011;5008;50.656;7.188;2022-11-15T05:34:11;4.30;;;3.80;;
9938;SDS011;5008;50.656;7.188;2022-11-15T05:36:40;3.80;;;3.50;;
9938;SDS011;5008;50.656;7.188;2022-11-15T05:39:09;3.80;;;3.40;;
9938;SDS011;5008;50.656;7.188;2022-11-15T05:41:37;4.10;;;3.80;;
9938;SDS011;5008;50.656;7.188;2022-11-15T05:44:10;3.60;;;3.30;;
9938;SDS011;5008;50.656;7.188;2022-11-15T05:46:39;3.90;;;3.50;;
9938;SDS011;5008;50.656;7.188;2022-11-15T05:49:09;3.63;;;3.33;;
9938;SDS011;5008;50.656;7.188;2022-11-15T05:51:38;4.00;;;3.70;;
9938;SDS011;5008;50.656;7.188;2022-11-15T05:54:06;3.90;;;3.60;;
9938;SDS011;5008;50.656;7.188;2022-11-15T05:56:32;3.50;;;2.97;;
9938;SDS011;5008;50.656;7.188;2022-11-15T05:58:59;3.83;;;3.10;;
9938;SDS011;5008;50.656;7.188;2022-11-15T06:01:28;3.43;;;3.20;;
9938;SDS011;5008;50.656;7.188;2022-11-15T06:03:55;3.30;;;3.00;;
9938;SDS011;5008;50.656;7.188;2022-11-15T06:06:22;3.70;;;3.40;;
9938;SDS011;5008;50.656;7.188;2022-11-15T06:08:49;3.30;;;3.00;;
9938;SDS011;5008;50.656;7.188;2022-11-15T06:11:16;3.10;;;2.90;;
9938;SDS011;5008;50.656;7.188;2022-11-15T06:13:42;3.37;;;3.07;;
9938;SDS011;5008;50.656;7.188;2022-11-15T06:16:09;3.33;;;3.03;;
9938;SDS011;5008;50.656;7.188;2022-11-15T06:18:37;2.77;;;2.57;;
9938;SDS011;5008;50.656;7.188;2022-11-15T06:21:04;3.27;;;3.00;;
9938;SDS011;5008;50.656;7.188;2022-11-15T06:23:32;2.80;;;2.60;;
9938;SDS011;5008;50.656;7.188;2022-11-15T06:25:59;3.97;;;2.70;;
9938;SDS011;5008;50.656;7.188;2022-11-15T06:28:27;3.10;;;2.90;;
9938;SDS011;5008;50.656;7.188;2022-11-15T06:30:55;3.30;;;3.00;;
9938;SDS011;5008;50.656;7.188;2022-11-15T06:36:14;2.70;;;2.50;;
9938;SDS011;5008;50.656;7.188;2022-11-15T06:38:42;3.00;;;2.53;;
9938;SDS011;5008;50.656;7.188;2022-11-15T06:41:09;3.37;;;3.07;;
9938;SDS011;5008;50.656;7.188;2022-11-15T06:43:37;2.80;;;2.50;;
9938;SDS011;5008;50.656;7.188;2022-11-15T06:46:05;2.80;;;2.50;;
9938;SDS011;5008;50.656;7.188;2022-11-15T06:48:33;2.80;;;2.50;;
9938;SDS011;5008;50.656;7.188;2022-11-15T06:51:06;3.07;;;2.77;;
9938;SDS011;5008;50.656;7.188;2022-11-15T06:53:33;3.20;;;2.90;;
9938;SDS011;5008;50.656;7.188;2022-11-15T06:56:00;2.77;;;2.57;;
9938;SDS011;5008;50.656;7.188;2022-11-15T06:58:28;3.33;;;2.53;;
9938;SDS011;5008;50.656;7.188;2022-11-15T07:00:58;3.30;;;2.60;;
9938;SDS011;5008;50.656;7.188;2022-11-15T07:03:25;3.03;;;2.70;;
9938;SDS011;5008;50.656;7.188;2022-11-15T07:05:52;2.80;;;2.60;;
9938;SDS011;5008;50.656;7.188;2022-11-15T07:08:22;2.50;;;2.30;;
9938;SDS011;5008;50.656;7.188;2022-11-15T07:10:50;2.70;;;2.50;;
9938;SDS011;5008;50.656;7.188;2022-11-15T07:13:17;3.00;;;2.80;;
9938;SDS011;5008;50.656;7.188;2022-11-15T07:15:44;2.90;;;2.70;;
9938;SDS011;5008;50.656;7.188;2022-11-15T07:18:11;3.20;;;2.90;;
9938;SDS011;5008;50.656;7.188;2022-11-15T07:20:37;3.00;;;2.80;;
9938;SDS011;5008;50.656;7.188;2022-11-15T07:23:04;3.07;;;2.77;;
9938;SDS011;5008;50.656;7.188;2022-11-15T07:25:35;4.03;;;2.80;;
9938;SDS011;5008;50.656;7.188;2022-11-15T07:28:02;3.53;;;2.87;;
9938;SDS011;5008;50.656;7.188;2022-11-15T07:30:29;3.77;;;3.10;;
9938;SDS011;5008;50.656;7.188;2022-11-15T07:32:56;3.10;;;2.80;;
9938;SDS011;5008;50.656;7.188;2022-11-15T07:35:27;6.47;;;3.20;;
9938;SDS011;5008;50.656;7.188;2022-11-15T07:37:55;3.70;;;3.40;;
9938;SDS011;5008;50.656;7.188;2022-11-15T07:40:22;3.60;;;3.30;;
9938;SDS011;5008;50.656;7.188;2022-11-15T07:42:51;3.57;;;3.23;;
9938;SDS011;5008;50.656;7.188;2022-11-15T07:45:18;3.40;;;3.10;;
9938;SDS011;5008;50.656;7.188;2022-11-15T07:47:45;3.60;;;3.30;;
9938;SDS011;5008;50.656;7.188;2022-11-15T07:50:12;3.53;;;3.23;;
9938;SDS011;5008;50.656;7.188;2022-11-15T07:52:39;3.23;;;2.60;;
9938;SDS011;5008;50.656;7.188;2022-11-15T07:55:06;3.33;;;3.03;;
9938;SDS011;5008;50.656;7.188;2022-11-15T07:57:34;2.97;;;2.77;;
9938;SDS011;5008;50.656;7.188;2022-11-15T08:02:48;2.90;;;2.70;;
9938;SDS011;5008;50.656;7.188;2022-11-15T08:05:14;2.80;;;2.60;;
9938;SDS011;5008;50.656;7.188;2022-11-15T08:07:41;2.87;;;2.67;;
9938;SDS011;5008;50.656;7.188;2022-11-15T08:10:08;3.20;;;2.93;;
9938;SDS011;5008;50.656;7.188;2022-11-15T08:12:36;3.40;;;2.90;;
9938;SDS011;5008;50.656;7.188;2022-11-15T08:15:04;2.90;;;2.70;;
9938;SDS011;5008;50.656;7.188;2022-11-15T08:17:32;2.60;;;2.40;;
9938;SDS011;5008;50.656;7.188;2022-11-15T08:19:59;3.67;;;2.60;;
9938;SDS011;5008;50.656;7.188;2022-11-15T08:22:26;3.40;;;3.10;;
9938;SDS011;5008;50.656;7.188;2022-11-15T08:24:53;2.40;;;2.20;;
9938;SDS011;5008;50.656;7.188;2022-11-15T08:27:20;3.37;;;2.90;;
9938;SDS011;5008;50.656;7.188;2022-11-15T08:29:48;4.07;;;2.80;;
9938;SDS011;5008;50.656;7.188;2022-11-15T08:32:15;3.47;;;2.53;;
9938;SDS011;5008;50.656;7.188;2022-11-15T08:34:44;3.23;;;2.93;;
9938;SDS011;5008;50.656;7.188;2022-11-15T08:37:10;2.20;;;2.10;;
9938;SDS011;5008;50.656;7.188;2022-11-15T08:39:37;2.93;;;2.60;;
9938;SDS011;5008;50.656;7.188;2022-11-15T08:42:04;3.67;;;2.57;;
9938;SDS011;5008;50.656;7.188;2022-11-15T08:44:33;2.93;;;2.63;;
9938;SDS011;5008;50.656;7.188;2022-11-15T08:47:00;3.03;;;2.73;;
9938;SDS011;5008;50.656;7.188;2022-11-15T08:49:27;3.20;;;2.90;;
9938;SDS011;5008;50.656;7.188;2022-11-15T08:51:55;6.57;;;2.90;;
9938;SDS011;5008;50.656;7.188;2022-11-15T08:54:22;2.70;;;2.33;;
9938;SDS011;5008;50.656;7.188;2022-11-15T08:56:48;2.40;;;2.20;;
9938;SDS011;5008;50.656;7.188;2022-11-15T08:59:15;2.63;;;2.43;;
9938;SDS011;5008;50.656;7.188;2022-11-15T09:01:42;4.03;;;2.63;;
9938;SDS011;5008;50.656;7.188;2022-11-15T09:04:09;4.07;;;3.00;;
9938;SDS011;5008;50.656;7.188;2022-11-15T09:06:36;2.10;;;2.00;;
9938;SDS011;5008;50.656;7.188;2022-11-15T09:09:04;2.53;;;2.33;;
9938;SDS011;5008;50.656;7.188;2022-11-15T09:11:31;3.00;;;2.20;;
9938;SDS011;5008;50.656;7.188;2022-11-15T09:13:58;3.33;;;2.23;;
9938;SDS011;5008;50.656;7.188;2022-11-15T09:16:24;2.43;;;1.87;;
9938;SDS011;5008;50.656;7.188;2022-11-15T09:18:52;2.87;;;2.10;;
9938;SDS011;5008;50.656;7.188;2022-11-15T09:21:18;3.57;;;1.60;;
9938;SDS011;5008;50.656;7.188;2022-11-15T09:23:45;2.40;;;1.80;;
9938;SDS011;5008;50.656;7.188;2022-11-15T09:26:13;1.63;;;1.53;;
9938;SDS011;5008;50.656;7.188;2022-11-15T09:28:40;1.70;;;1.60;;
9938;SDS011;5008;50.656;7.188;2022-11-15T09:31:08;2.30;;;1.67;;
9938;SDS011;5008;50.656;7.188;2022-11-15T09:33:35;1.73;;;1.47;;
9938;SDS011;5008;50.656;7.188;2022-11-15T09:36:03;2.27;;;1.50;;
9938;SDS011;5008;50.656;7.188;2022-11-15T09:38:32;1.40;;;1.30;;
9938;SDS011;5008;50.656;7.188;2022-11-15T09:41:16;1.90;;;1.50;;
9938;SDS011;5008;50.656;7.188;2022-11-15T09:44:05;2.33;;;1.10;;
9938;SDS011;5008;50.656;7.188;2022-11-15T09:46:43;1.37;;;1.27;;
9938;SDS011;5008;50.656;7.188;2022-11-15T09:49:22;1.30;;;1.20;;
9938;SDS011;5008;50.656;7.188;2022-11-15T09:51:50;1.40;;;1.03;;
9938;SDS011;5008;50.656;7.188;2022-11-15T09:54:28;1.40;;;1.30;;
9938;SDS011;5008;50.656;7.188;2022-11-15T09:57:02;2.23;;;1.07;;
9938;SDS011;5008;50.656;7.188;2022-11-15T09:59:39;1.60;;;1.20;;
9938;SDS011;5008;50.656;7.188;2022-11-15T10:02:23;2.50;;;1.33;;
9938;SDS011;5008;50.656;7.188;2022-11-15T10:05:11;1.70;;;1.00;;
9938;SDS011;5008;50.656;7.188;2022-11-15T10:07:44;2.17;;;0.97;;
9938;SDS011;5008;50.656;7.188;2022-11-15T10:10:18;1.63;;;1.00;;
9938;SDS011;5008;50.656;7.188;2022-11-15T10:12:57;1.00;;;0.90;;
9938;SDS011;5008;50.656;7.188;2022-11-15T10:15:25;0.80;;;0.70;;
9938;SDS011;5008;50.656;7.188;2022-11-15T10:17:59;1.77;;;0.97;;
9938;SDS011;5008;50.656;7.188;2022-11-15T10:20:39;0.90;;;0.80;;
9938;SDS011;5008;50.656;7.188;2022-11-15T10:23:13;2.90;;;0.90;;
9938;SDS011;5008;50.656;7.188;2022-11-15T10:25:41;1.70;;;0.90;;
9938;SDS011;5008;50.656;7.188;2022-11-15T10:28:11;1.27;;;0.70;;
9938;SDS011;5008;50.656;7.188;2022-11-15T10:30:41;1.13;;;0.63;;
9938;SDS011;5008;50.656;7.188;2022-11-15T10:33:12;1.63;;;0.90;;
9938;SDS011;5008;50.656;7.188;2022-11-15T10:35:44;2.40;;;0.87;;
9938;SDS011;5008;50.656;7.188;2022-11-15T10:38:11;3.17;;;0.83;;
9938;SDS011;5008;50.656;7.188;2022-11-15T10:40:39;1.70;;;1.00;;
9938;SDS011;5008;50.656;7.188;2022-11-15T10:43:14;1.13;;;0.80;;
9938;SDS011;5008;50.656;7.188;2022-11-15T10:45:44;1.23;;;1.00;;
9938;SDS011;5008;50.656;7.188;2022-11-15T10:48:22;1.67;;;0.77;;
9938;SDS011;5008;50.656;7.188;2022-11-15T10:50:50;0.70;;;0.70;;
9938;SDS011;5008;50.656;7.188;2022-11-15T10:53:21;3.00;;;0.87;;
9938;SDS011;5008;50.656;7.188;2022-11-15T10:55:52;1.17;;;1.00;;
9938;SDS011;5008;50.656;7.188;2022-11-15T10:58:28;1.60;;;0.77;;
9938;SDS011;5008;50.656;7.188;2022-11-15T11:01:13;2.57;;;0.60;;
9938;SDS011;5008;50.656;7.188;2022-11-15T11:03:43;1.37;;;0.90;;
9938;SDS011;5008;50.656;7.188;2022-11-15T11:06:12;1.03;;;0.80;;
9938;SDS011;5008;50.656;7.188;2022-11-15T11:08:40;1.20;;;0.87;;
9938;SDS011;5008;50.656;7.188;2022-11-15T11:11:21;2.30;;;1.13;;
9938;SDS011;5008;50.656;7.188;2022-11-15T11:13:49;0.80;;;0.80;;
9938;SDS011;5008;50.656;7.188;2022-11-15T11:19:16;2.00;;;1.00;;
9938;SDS011;5008;50.656;7.188;2022-11-15T11:22:01;1.63;;;1.10;;
9938;SDS011;5008;50.656;7.188;2022-11-15T11:24:32;2.10;;;1.27;;
9938;SDS011;5008;50.656;7.188;2022-11-15T11:27:23;2.30;;;1.10;;
9938;SDS011;5008;50.656;7.188;2022-11-15T11:30:10;1.27;;;1.10;;
9938;SDS011;5008;50.656;7.188;2022-11-15T11:32:49;1.20;;;1.10;;
9938;SDS011;5008;50.656;7.188;2022-11-15T11:35:28;2.13;;;1.27;;
9938;SDS011;5008;50.656;7.188;2022-11-15T11:38:03;1.00;;;1.00;;
9938;SDS011;5008;50.656;7.188;2022-11-15T11:40:42;1.50;;;1.17;;
9938;SDS011;5008;50.656;7.188;2022-11-15T11:43:13;1.93;;;1.20;;
9938;SDS011;5008;50.656;7.188;2022-11-15T11:45:54;1.77;;;1.40;;
9938;SDS011;5008;50.656;7.188;2022-11-15T11:48:38;1.60;;;1.33;;
9938;SDS011;5008;50.656;7.188;2022-11-15T11:51:10;2.23;;;1.10;;
9938;SDS011;5008;50.656;7.188;2022-11-15T11:53:42;1.73;;;1.50;;
9938;SDS011;5008;50.656;7.188;2022-11-15T11:56:25;1.90;;;1.33;;
9938;SDS011;5008;50.656;7.188;2022-11-15T11:59:00;2.33;;;1.60;;
9938;SDS011;5008;50.656;7.188;2022-11-15T12:01:39;1.63;;;1.53;;
9938;SDS011;5008;50.656;7.188;2022-11-15T12:04:16;1.50;;;1.40;;
9938;SDS011;5008;50.656;7.188;2022-11-15T12:06:47;3.90;;;1.60;;
9938;SDS011;5008;50.656;7.188;2022-11-15T12:09:20;2.00;;;1.70;;
9938;SDS011;5008;50.656;7.188;2022-11-15T12:11:51;2.20;;;1.70;;
9938;SDS011;5008;50.656;7.188;2022-11-15T12:14:27;2.33;;;2.10;;
9938;SDS011;5008;50.656;7.188;2022-11-15T12:16:59;3.73;;;2.00;;
9938;SDS011;5008;50.656;7.188;2022-11-15T12:19:26;3.87;;;2.50;;
9938;SDS011;5008;50.656;7.188;2022-11-15T12:21:56;3.53;;;2.20;;
9938;SDS011;5008;50.656;7.188;2022-11-15T12:24:28;2.50;;;2.30;;
9938;SDS011;5008;50.656;7.188;2022-11-15T12:27:00;2.30;;;2.10;;
9938;SDS011;5008;50.656;7.188;2022-11-15T12:29:41;2.73;;;2.20;;
9938;SDS011;5008;50.656;7.188;2022-11-15T12:32:17;2.37;;;2.27;;
9938;SDS011;5008;50.656;7.188;2022-11-15T12:34:55;2.53;;;2.10;;
9938;SDS011;5008;50.656;7.188;2022-11-15T12:37:33;2.33;;;2.13;;
9938;SDS011;5008;50.656;7.188;2022-11-15T12:40:23;2.53;;;1.90;;
9938;SDS011;5008;50.656;7.188;2022-11-15T12:43:02;3.08;;;2.08;;
9938;SDS011;5008;50.656;7.188;2022-11-15T12:45:32;1.30;;;1.25;;
9938;SDS011;5008;50.656;7.188;2022-11-15T12:51:13;2.55;;;2.05;;
9938;SDS011;5008;50.656;7.188;2022-11-15T12:53:39;2.55;;;1.73;;
9938;SDS011;5008;50.656;7.188;2022-11-15T12:56:19;2.20;;;2.00;;
9938;SDS011;5008;50.656;7.188;2022-11-15T12:58:48;2.50;;;2.30;;
9938;SDS011;5008;50.656;7.188;2022-11-15T13:04:27;2.08;;;1.98;;
9938;SDS011;5008;50.656;7.188;2022-11-15T13:06:58;2.83;;;2.53;;
9938;SDS011;5008;50.656;7.188;2022-11-15T13:18:37;1.90;;;1.80;;
9938;SDS011;5008;50.656;7.188;2022-11-15T13:21:18;2.13;;;2.03;;
9938;SDS011;5008;50.656;7.188;2022-11-15T13:24:09;2.60;;;2.23;;
9938;SDS011;5008;50.656;7.188;2022-11-15T13:26:39;2.90;;;2.22;;
9938;SDS011;5008;50.656;7.188;2022-11-15T13:29:14;2.40;;;2.20;;
9938;SDS011;5008;50.656;7.188;2022-11-15T13:31:42;2.90;;;2.53;;
9938;SDS011;5008;50.656;7.188;2022-11-15T13:34:19;2.30;;;2.10;;
9938;SDS011;5008;50.656;7.188;2022-11-15T13:36:56;2.83;;;2.35;;
9938;SDS011;5008;50.656;7.188;2022-11-15T13:39:26;2.47;;;2.13;;
9938;SDS011;5008;50.656;7.188;2022-11-15T13:41:55;3.42;;;2.20;;
9938;SDS011;5008;50.656;7.188;2022-11-15T13:44:23;3.00;;;2.50;;
9938;SDS011;5008;50.656;7.188;2022-11-15T13:47:00;2.95;;;2.00;;
9938;SDS011;5008;50.656;7.188;2022-11-15T13:49:29;3.20;;;1.90;;
9938;SDS011;5008;50.656;7.188;2022-11-15T13:51:58;4.25;;;2.00;;
9938;SDS011;5008;50.656;7.188;2022-11-15T13:54:28;2.30;;;2.10;;
9938;SDS011;5008;50.656;7.188;2022-11-15T13:56:57;1.95;;;1.80;;
9938;SDS011;5008;50.656;7.188;2022-11-15T13:59:29;2.10;;;1.80;;
9938;SDS011;5008;50.656;7.188;2022-11-15T14:01:59;2.10;;;1.80;;
9938;SDS011;5008;50.656;7.188;2022-11-15T14:04:29;2.15;;;1.70;;
9938;SDS011;5008;50.656;7.188;2022-11-15T14:07:00;4.22;;;2.35;;
9938;SDS011;5008;50.656;7.188;2022-11-15T14:12:24;2.00;;;1.70;;
9938;SDS011;5008;50.656;7.188;2022-11-15T14:14:56;3.13;;;1.80;;
9938;SDS011;5008;50.656;7.188;2022-11-15T14:17:34;2.15;;;1.50;;
9938;SDS011;5008;50.656;7.188;2022-11-15T14:22:57;2.63;;;1.63;;
9938;SDS011;5008;50.656;7.188;2022-11-15T14:25:25;1.38;;;1.27;;
9938;SDS011;5008;50.656;7.188;2022-11-15T14:30:54;1.40;;;1.30;;
9938;SDS011;5008;50.656;7.188;2022-11-15T14:33:23;1.63;;;1.52;;
9938;SDS011;5008;50.656;7.188;2022-11-15T14:35:54;1.87;;;1.57;;
9938;SDS011;5008;50.656;7.188;2022-11-15T14:38:23;2.58;;;1.45;;
9938;SDS011;5008;50.656;7.188;2022-11-15T14:40:51;1.48;;;1.38;;
9938;SDS011;5008;50.656;7.188;2022-11-15T14:43:24;1.50;;;1.40;;
9938;SDS011;5008;50.656;7.188;2022-11-15T14:45:51;1.30;;;1.20;;
9938;SDS011;5008;50.656;7.188;2022-11-15T14:48:18;1.80;;;1.50;;
9938;SDS011;5008;50.656;7.188;2022-11-15T14:50:53;2.67;;;1.80;;
9938;SDS011;5008;50.656;7.188;2022-11-15T14:53:20;2.37;;;1.60;;
9938;SDS011;5008;50.656;7.188;2022-11-15T14:55:48;1.50;;;1.40;;
9938;SDS011;5008;50.656;7.188;2022-11-15T14:58:15;2.37;;;1.57;;
9938;SDS011;5008;50.656;7.188;2022-11-15T15:00:42;1.60;;;1.50;;
9938;SDS011;5008;50.656;7.188;2022-11-15T15:03:09;1.80;;;1.70;;
9938;SDS011;5008;50.656;7.188;2022-11-15T15:05:36;4.50;;;1.90;;
9938;SDS011;5008;50.656;7.188;2022-11-15T15:08:05;2.70;;;1.70;;
9938;SDS011;5008;50.656;7.188;2022-11-15T15:10:34;2.23;;;1.73;;
9938;SDS011;5008;50.656;7.188;2022-11-15T15:13:05;2.97;;;1.60;;
9938;SDS011;5008;50.656;7.188;2022-11-15T15:15:35;1.60;;;1.50;;
9938;SDS011;5008;50.656;7.188;2022-11-15T15:18:03;3.13;;;1.93;;
9938;SDS011;5008;50.656;7.188;2022-11-15T15:20:33;2.30;;;2.07;;
9938;SDS011;5008;50.656;7.188;2022-11-15T15:23:01;3.33;;;1.83;;
9938;SDS011;5008;50.656;7.188;2022-11-15T15:25:28;1.60;;;1.50;;
9938;SDS011;5008;50.656;7.188;2022-11-15T15:27:58;1.80;;;1.70;;
9938;SDS011;5008;50.656;7.188;2022-11-15T15:30:41;2.40;;;1.77;;
9938;SDS011;5008;50.656;7.188;2022-11-15T15:33:07;2.43;;;1.90;;
9938;SDS011;5008;50.656;7.188;2022-11-15T15:35:34;1.93;;;1.83;;
9938;SDS011;5008;50.656;7.188;2022-11-15T15:38:01;2.83;;;1.97;;
9938;SDS011;5008;50.656;7.188;2022-11-15T15:40:29;2.00;;;1.80;;
9938;SDS011;5008;50.656;7.188;2022-11-15T15:42:57;2.10;;;1.90;;
9938;SDS011;5008;50.656;7.188;2022-11-15T15:45:25;2.00;;;1.80;;
9938;SDS011;5008;50.656;7.188;2022-11-15T15:47:54;2.67;;;2.00;;
9938;SDS011;5008;50.656;7.188;2022-11-15T15:50:22;2.43;;;1.97;;
9938;SDS011;5008;50.656;7.188;2022-11-15T15:52:51;2.10;;;1.90;;
9938;SDS011;5008;50.656;7.188;2022-11-15T15:55:18;2.83;;;2.10;;
9938;SDS011;5008;50.656;7.188;2022-11-15T15:57:49;2.30;;;2.07;;
9938;SDS011;5008;50.656;7.188;2022-11-15T16:00:17;2.63;;;2.43;;
9938;SDS011;5008;50.656;7.188;2022-11-15T16:02:45;2.80;;;2.60;;
9938;SDS011;5008;50.656;7.188;2022-11-15T16:05:13;2.77;;;2.50;;
9938;SDS011;5008;50.656;7.188;2022-11-15T16:07:41;2.30;;;2.10;;